Observations for SHOREHAM-BY-SEA, United Kingdom (EGKA)

EGKA 241950Z 36005KT CAVOK 02/01 Q1012  
EGKA 241920Z 36005KT CAVOK 03/02 Q1012  
EGKA 241850Z 36006KT CAVOK 03/02 Q1012  
EGKA 241820Z 36005KT CAVOK 03/02 Q1012  
EGKA 241750Z 36006KT 9999 FEW030 04/02 Q1012
EGKA 241720Z 36006KT 9999 FEW030 05/03 Q1012
EGKA 241650Z 36005KT 9999 FEW032 06/04 Q1012
EGKA 241620Z 01005KT 9999 FEW032 06/05 Q1012
EGKA 241550Z 36005KT 9999 SCT028 07/05 Q1011
EGKA 241520Z 01005KT 9999 SCT025 07/05 Q1011
EGKA 241450Z 01005KT 9999 SCT022 08/05 Q1011
EGKA 241420Z 03003KT 9999 SCT030 08/05 Q1011
EGKA 241350Z 01003KT 9999 SCT030 08/05 Q1011
EGKA 241320Z 36005KT 9999 SCT030 08/05 Q1011
EGKA 241250Z 01005KT 9999 SCT030 08/05 Q1011
EGKA 241220Z 36007KT 9999 SCT030 08/05 Q1011
EGKA 241150Z 36008KT 9999 SCT030 08/06 Q1011
EGKA 241120Z 01007KT 9999 SCT030 08/06 Q1011
EGKA 241050Z 36006KT 9999 FEW028 08/06 Q1011
EGKA 241020Z 01006KT 9999 FEW028 08/06 Q1011
EGKA 240950Z 36003KT 9999 FEW040 07/06 Q1011
EGKA 240920Z 32003KT 9999 FEW036 06/05 Q1010
EGKA 240850Z 02003KT 9999 FEW036 04/03 Q1010
EGKA 240820Z 34004KT 9999 FEW040 05/03 Q1009
EGKA 240750Z 35005KT 9999 FEW040 05/03 Q1009